Cormorant, Canada
Current Conditions -  °F | °C
As of 4:00 AM on Monday 22 Dec 2014 (Local Time) from CYQD Reporting Station
Haze Haze  
Wind Chill: 19°   Ceiling: 400
Heat Index: 25°   Visibility: 0.75mi
Dew Point: 25°   Wind: 5mph
Humidity: 100%   Direction: 40°NE
Pressure: 29.67"   Gusts: NA
Location:  54.23°N, 100.6°W
Report Text: CYQD 221000Z 04004KT 3/4SM BR VV004 M04/M04 A2967 RMK FG8 SLP065
Loading
Personal Weather Stations






























Interactive Weather Map New forecast layout! Learn more

10-Day Weather Forecast

Advertisements
Track Severe Weather on mobile